Time;durP1;ratioP1;P1;durP2;ratioP2;P2;SDS_P1;SDS_P2;PMS_P1;PMS_P2;Temp;Humidity;BMP_temperature;BMP_pressure;BME280_temperature;BME280_humidity;BME280_pressure;Samples;Min_cycle;Max_cycle;Signal;HPM_P1;HPM_P2
2024/02/26 05:31:16;;;;;;;0.63;0.50;;;6.70;99.90;;;;;;4916961;29;20527;-83
2024/02/26 05:33:43;;;;;;;0.93;0.40;;;6.70;99.90;;;;;;4919235;29;20440;-83
2024/02/26 05:36:10;;;;;;;0.50;0.40;;;6.70;99.90;;;;;;4919385;29;20476;-82
2024/02/26 05:38:37;;;;;;;0.40;0.30;;;6.70;99.90;;;;;;4918594;29;20834;-82
2024/02/26 05:41:04;;;;;;;0.40;0.40;;;6.70;99.90;;;;;;4918596;29;20451;-82
2024/02/26 05:43:31;;;;;;;0.60;0.60;;;6.60;99.90;;;;;;4918889;29;20460;-82
2024/02/26 05:45:58;;;;;;;0.60;0.50;;;6.60;99.90;;;;;;4919204;29;20451;-82
2024/02/26 05:48:26;;;;;;;0.83;0.33;;;6.50;99.90;;;;;;4919346;29;20483;-82
2024/02/26 05:50:52;;;;;;;0.50;0.40;;;6.50;99.90;;;;;;4918958;29;20488;-83
2024/02/26 05:53:19;;;;;;;1.13;0.47;;;6.40;99.90;;;;;;4919482;29;20459;-82
2024/02/26 05:55:46;;;;;;;1.90;0.43;;;6.40;99.90;;;;;;4919052;29;20452;-82
2024/02/26 05:58:14;;;;;;;0.60;0.30;;;6.30;99.90;;;;;;4919061;29;20443;-82
2024/02/26 06:00:40;;;;;;;0.50;0.50;;;6.20;99.90;;;;;;4919561;29;20447;-82
2024/02/26 06:03:07;;;;;;;0.60;0.40;;;6.10;99.90;;;;;;4919449;29;20475;-82
2024/02/26 06:05:35;;;;;;;0.40;0.37;;;6.10;99.90;;;;;;4919001;29;20463;-82
2024/02/26 06:08:02;;;;;;;0.40;0.40;;;6.10;99.90;;;;;;4918481;29;20440;-82
2024/02/26 06:10:29;;;;;;;0.97;0.50;;;6.10;99.90;;;;;;4918735;29;20526;-82
2024/02/26 06:12:56;;;;;;;0.70;0.50;;;6.10;99.90;;;;;;4919475;29;20460;-82
2024/02/26 06:15:22;;;;;;;0.50;0.50;;;6.20;99.90;;;;;;4918839;29;20456;-82
2024/02/26 06:17:49;;;;;;;0.40;0.30;;;6.20;99.90;;;;;;4918581;29;20467;-82
2024/02/26 06:20:16;;;;;;;0.40;0.30;;;6.20;99.90;;;;;;4918264;29;20464;-82
2024/02/26 06:22:44;;;;;;;1.90;0.50;;;6.20;99.90;;;;;;4918376;29;20829;-81
2024/02/26 06:25:11;;;;;;;0.40;0.40;;;6.20;99.90;;;;;;4918442;29;20449;-82
2024/02/26 06:27:38;;;;;;;0.73;0.50;;;6.20;99.90;;;;;;4918987;29;20938;-82
2024/02/26 06:30:06;;;;;;;0.40;0.30;;;6.20;99.90;;;;;;4918203;29;20495;-82
2024/02/26 06:32:32;;;;;;;0.40;0.30;;;6.20;99.90;;;;;;4919180;29;20953;-82
2024/02/26 06:34:59;;;;;;;0.40;0.37;;;6.20;99.90;;;;;;4919775;29;20452;-83
2024/02/26 06:37:26;;;;;;;0.37;0.30;;;6.20;99.90;;;;;;4919801;29;20459;-82
2024/02/26 06:39:54;;;;;;;0.40;0.33;;;6.10;99.90;;;;;;4936723;29;20475;-82
2024/02/26 06:42:21;;;;;;;0.40;0.40;;;6.20;99.90;;;;;;4943899;29;20436;-82
2024/02/26 06:44:47;;;;;;;0.50;0.50;;;6.30;99.90;;;;;;4944669;29;20452;-82
2024/02/26 06:47:14;;;;;;;0.30;0.30;;;6.40;99.90;;;;;;4935492;29;20448;-80
2024/02/26 06:49:41;;;;;;;0.40;0.40;;;6.50;99.90;;;;;;4926492;29;20483;-80
2024/02/26 06:52:07;;;;;;;0.50;0.50;;;6.50;99.90;;;;;;4925703;29;20475;-80
2024/02/26 06:54:34;;;;;;;0.70;0.33;;;6.60;99.90;;;;;;4925818;29;20933;-80
2024/02/26 06:57:03;;;;;;;0.50;0.50;;;6.70;99.90;;;;;;4926102;29;20452;-80
2024/02/26 06:59:29;;;;;;;0.30;0.30;;;6.70;99.90;;;;;;4925761;29;21092;-80
2024/02/26 07:01:56;;;;;;;0.30;0.30;;;6.80;99.90;;;;;;4926010;29;20452;-81
2024/02/26 07:04:23;;;;;;;1.23;0.53;;;6.90;99.90;;;;;;4925318;29;20824;-81
2024/02/26 07:06:49;;;;;;;0.57;0.57;;;6.90;99.90;;;;;;4925390;29;20458;-81
2024/02/26 07:09:16;;;;;;;0.50;0.40;;;7.00;99.90;;;;;;4925661;29;20471;-80
2024/02/26 07:11:43;;;;;;;0.30;0.30;;;7.10;99.90;;;;;;4925566;29;20495;-81
2024/02/26 07:14:13;;;;;;;0.40;0.30;;;7.10;99.90;;;;;;4925453;29;20460;-80
2024/02/26 07:16:39;;;;;;;0.30;0.30;;;7.10;99.90;;;;;;4925275;29;20432;-81
2024/02/26 07:19:06;;;;;;;0.30;0.30;;;7.10;99.90;;;;;;4925375;29;20464;-81
2024/02/26 07:21:33;;;;;;;0.40;0.40;;;7.20;99.90;;;;;;4926568;29;20452;-80
2024/02/26 07:24:00;;;;;;;0.60;0.30;;;7.20;99.90;;;;;;4922696;29;20464;-82
2024/02/26 07:26:27;;;;;;;0.40;0.30;;;7.20;99.90;;;;;;4921580;29;20459;-82
2024/02/26 07:28:53;;;;;;;0.30;0.30;;;7.40;99.90;;;;;;4920948;29;20980;-82
2024/02/26 07:31:21;;;;;;;0.60;0.60;;;7.30;99.90;;;;;;4922009;29;20492;-81
2024/02/26 07:33:48;;;;;;;0.60;0.50;;;7.30;99.90;;;;;;4923417;29;20455;-81
2024/02/26 07:36:15;;;;;;;0.40;0.30;;;7.40;99.90;;;;;;4921961;29;20436;-82
2024/02/26 07:38:42;;;;;;;0.80;0.40;;;7.40;99.90;;;;;;4920152;29;20475;-82
2024/02/26 07:41:09;;;;;;;0.57;0.40;;;7.50;99.90;;;;;;4920047;29;20807;-82
2024/02/26 07:43:35;;;;;;;0.83;0.60;;;7.60;99.90;;;;;;4924332;29;20859;-81
2024/02/26 07:46:02;;;;;;;0.40;0.40;;;7.60;99.90;;;;;;4923810;29;20452;-81
2024/02/26 07:48:30;;;;;;;0.73;0.40;;;7.60;99.90;;;;;;4923219;29;20475;-82
2024/02/26 07:50:58;;;;;;;0.40;0.30;;;7.70;99.90;;;;;;4921025;29;20484;-82
2024/02/26 07:53:25;;;;;;;0.30;0.30;;;7.60;99.90;;;;;;4921668;29;20455;-81
2024/02/26 07:55:52;;;;;;;0.30;0.30;;;7.50;99.90;;;;;;4921727;29;20782;-82
2024/02/26 07:58:19;;;;;;;0.40;0.40;;;7.50;99.90;;;;;;4922110;29;20452;-82
2024/02/26 08:00:46;;;;;;;1.03;0.30;;;7.50;99.90;;;;;;4920587;29;20478;-82
2024/02/26 08:03:15;;;;;;;0.43;0.33;;;7.40;99.90;;;;;;4920981;29;20542;-82
2024/02/26 08:05:43;;;;;;;0.40;0.40;;;7.30;99.90;;;;;;4921653;29;20527;-80
2024/02/26 08:08:10;;;;;;;0.50;0.40;;;7.30;99.90;;;;;;4921881;29;20483;-82
2024/02/26 08:10:37;;;;;;;0.47;0.40;;;7.30;99.90;;;;;;4920164;29;20484;-83
2024/02/26 08:13:05;;;;;;;0.47;0.40;;;7.40;99.90;;;;;;4920162;29;20539;-83
2024/02/26 08:15:34;;;;;;;0.30;0.30;;;7.40;99.90;;;;;;4921367;29;20468;-82
2024/02/26 08:18:02;;;;;;;0.40;0.30;;;7.40;99.90;;;;;;4921112;29;20462;-84
2024/02/26 08:20:29;;;;;;;0.73;0.40;;;7.50;99.90;;;;;;4921677;29;20455;-82
2024/02/26 08:22:57;;;;;;;1.33;0.43;;;7.60;99.90;;;;;;4923021;29;20981;-82
2024/02/26 08:25:23;;;;;;;0.50;0.40;;;7.60;99.90;;;;;;4922764;29;20511;-82
2024/02/26 08:27:50;;;;;;;0.53;0.40;;;7.70;99.90;;;;;;4922592;29;20988;-82
2024/02/26 08:30:17;;;;;;;0.40;0.40;;;7.90;99.90;;;;;;4921872;29;20499;-82
2024/02/26 08:32:44;;;;;;;0.47;0.47;;;8.10;99.90;;;;;;4922775;29;20463;-82
2024/02/26 08:35:11;;;;;;;0.60;0.53;;;8.20;99.90;;;;;;4922019;29;20463;-82
2024/02/26 08:37:38;;;;;;;0.60;0.60;;;8.30;99.90;;;;;;4922100;29;20448;-82
2024/02/26 08:40:07;;;;;;;1.60;0.53;;;8.20;99.90;;;;;;4921733;29;20479;-82
2024/02/26 08:42:34;;;;;;;0.40;0.40;;;8.10;99.90;;;;;;4921819;29;20455;-81
2024/02/26 08:45:01;;;;;;;0.87;0.50;;;8.10;99.90;;;;;;4922153;29;20488;-82
2024/02/26 08:47:28;;;;;;;0.50;0.50;;;8.10;99.90;;;;;;4921035;29;20448;-82
2024/02/26 08:49:55;;;;;;;0.40;0.40;;;8.20;99.90;;;;;;4921282;29;20468;-83
2024/02/26 08:52:23;;;;;;;0.47;0.47;;;8.20;99.90;;;;;;4920761;29;20440;-82
2024/02/26 08:54:50;;;;;;;0.40;0.40;;;8.00;99.90;;;;;;4921152;29;20507;-83
2024/02/26 08:57:18;;;;;;;0.80;0.80;;;7.90;99.90;;;;;;4921179;29;20496;-82
2024/02/26 08:59:45;;;;;;;0.40;0.37;;;7.90;99.90;;;;;;4920531;29;20826;-82
2024/02/26 09:02:11;;;;;;;0.60;0.43;;;8.00;99.90;;;;;;4920538;29;20448;-82
2024/02/26 09:04:38;;;;;;;0.43;0.40;;;8.10;99.90;;;;;;4920001;29;20440;-82
2024/02/26 09:07:06;;;;;;;0.93;0.50;;;8.20;99.90;;;;;;4920596;29;20452;-83
2024/02/26 09:09:32;;;;;;;0.80;0.37;;;8.30;99.90;;;;;;4920077;29;20471;-83
2024/02/26 09:11:59;;;;;;;0.70;0.50;;;8.20;99.90;;;;;;4919819;29;20893;-82
2024/02/26 09:14:27;;;;;;;0.50;0.50;;;8.40;99.90;;;;;;4920032;29;20459;-83
2024/02/26 09:16:54;;;;;;;2.20;0.63;;;8.50;99.90;;;;;;4919931;29;20455;-82
2024/02/26 09:19:21;;;;;;;0.60;0.53;;;8.50;99.90;;;;;;4919479;29;20468;-82
2024/02/26 09:21:48;;;;;;;0.40;0.30;;;8.60;99.90;;;;;;4919756;29;20444;-83
2024/02/26 09:24:15;;;;;;;22.63;1.13;;;8.60;99.90;;;;;;4919483;29;20968;-82
2024/02/26 09:26:42;;;;;;;1.83;0.70;;;8.70;99.90;;;;;;4919585;29;20484;-83
2024/02/26 09:29:09;;;;;;;0.30;0.30;;;8.70;99.90;;;;;;4919086;29;20467;-83
2024/02/26 09:31:37;;;;;;;0.40;0.30;;;8.90;99.90;;;;;;4918936;29;20508;-83
2024/02/26 09:34:04;;;;;;;0.67;0.33;;;9.00;99.90;;;;;;4920546;29;20851;-81
2024/02/26 09:36:31;;;;;;;0.93;0.40;;;9.20;99.90;;;;;;4922085;29;20452;-81
2024/02/26 09:38:58;;;;;;;0.50;0.50;;;9.40;99.90;;;;;;4918518;29;20472;-79
2024/02/26 09:41:28;;;;;;;0.60;0.50;;;9.80;99.90;;;;;;4918130;29;20957;-82
2024/02/26 09:43:57;;;;;;;0.90;0.50;;;10.30;99.90;;;;;;4917649;29;20968;-80
2024/02/26 09:46:24;;;;;;;0.90;0.50;;;10.80;99.90;;;;;;4918850;29;20531;-81
2024/02/26 09:48:53;;;;;;;0.40;0.30;;;11.60;99.90;;;;;;4917895;29;20472;-80
2024/02/26 09:51:21;;;;;;;0.63;0.40;;;12.30;99.90;;;;;;4917441;29;21009;-81
2024/02/26 09:53:50;;;;;;;0.43;0.43;;;12.70;99.90;;;;;;4917980;29;20456;-81
2024/02/26 09:56:16;;;;;;;0.40;0.33;;;12.90;99.90;;;;;;4917970;29;20475;-81
2024/02/26 09:58:45;;;;;;;0.40;0.40;;;12.80;99.90;;;;;;4918014;29;20836;-81
2024/02/26 10:01:15;;;;;;;1.00;0.40;;;12.80;99.90;;;;;;4918051;29;20456;-80
2024/02/26 10:03:44;;;;;;;1.03;0.60;;;12.90;99.90;;;;;;4918724;29;20442;-81
2024/02/26 10:06:12;;;;;;;0.60;0.60;;;13.10;99.90;;;;;;4918955;29;20455;-80
2024/02/26 10:08:40;;;;;;;0.70;0.60;;;13.40;99.90;;;;;;4920100;29;20472;-79
2024/02/26 10:11:08;;;;;;;0.50;0.40;;;13.70;99.90;;;;;;4920224;29;20499;-80
2024/02/26 10:13:36;;;;;;;2.37;0.50;;;14.00;99.90;;;;;;4920747;29;20451;-80
2024/02/26 10:16:03;;;;;;;0.40;0.30;;;14.30;99.90;;;;;;4940340;29;20442;-80
2024/02/26 10:18:46;;;;;;;0.50;0.47;;;14.70;99.90;;;;;;4944019;29;20459;-79
2024/02/26 10:21:15;;;;;;;0.47;0.47;;;14.80;99.90;;;;;;4941369;29;20436;-88
2024/02/26 10:23:43;;;;;;;0.40;0.30;;;14.60;99.90;;;;;;4931600;29;20455;-79
2024/02/26 10:26:12;;;;;;;0.50;0.50;;;14.50;99.90;;;;;;4924844;29;20451;-80
2024/02/26 10:28:38;;;;;;;1.83;0.67;;;14.30;99.90;;;;;;4924458;29;20459;-79
2024/02/26 10:31:05;;;;;;;0.40;0.40;;;14.00;99.90;;;;;;4923825;29;20498;-80
2024/02/26 10:33:35;;;;;;;0.60;0.50;;;13.80;99.90;;;;;;4924013;29;20451;-80
2024/02/26 10:36:02;;;;;;;0.40;0.30;;;13.50;99.90;;;;;;4923935;29;20445;-80
2024/02/26 10:38:30;;;;;;;1.23;0.50;;;13.30;99.90;;;;;;4923832;29;20472;-80
2024/02/26 10:40:57;;;;;;;0.40;0.30;;;12.70;99.90;;;;;;4926806;29;20451;-81
2024/02/26 10:43:24;;;;;;;0.50;0.50;;;12.60;99.90;;;;;;4924824;29;20455;-80
2024/02/26 10:45:50;;;;;;;0.60;0.53;;;12.40;99.90;;;;;;4924691;29;20448;-81
2024/02/26 10:48:18;;;;;;;0.60;0.40;;;12.40;99.90;;;;;;4924446;29;20455;-81
2024/02/26 10:50:45;;;;;;;0.40;0.33;;;12.80;99.90;;;;;;4923348;29;20448;-79
2024/02/26 10:53:19;;;;;;;0.67;0.50;;;13.00;99.90;;;;;;4922450;29;20458;-79
2024/02/26 10:55:50;;;;;;;0.40;0.40;;;13.20;99.90;;;;;;4922839;29;20519;-80
2024/02/26 10:58:18;;;;;;;0.63;0.63;;;13.60;99.90;;;;;;4922269;29;20435;-80
2024/02/26 11:00:46;;;;;;;0.40;0.40;;;14.20;99.90;;;;;;4922550;29;20448;-80
2024/02/26 11:03:16;;;;;;;0.40;0.40;;;14.50;99.90;;;;;;4921914;29;20953;-80
2024/02/26 11:05:43;;;;;;;0.50;0.40;;;14.80;99.90;;;;;;4921548;29;20799;-79
2024/02/26 11:08:11;;;;;;;1.87;0.60;;;15.30;99.90;;;;;;4921906;29;20913;-79
2024/02/26 11:10:38;;;;;;;1.67;0.50;;;15.50;99.90;;;;;;4921878;29;20463;-79
2024/02/26 11:13:07;;;;;;;0.50;0.40;;;15.60;99.90;;;;;;4921266;29;20483;-80
2024/02/26 11:15:34;;;;;;;0.60;0.60;;;15.10;99.90;;;;;;4921537;29;20454;-80
2024/02/26 11:18:02;;;;;;;7.13;0.60;;;14.40;99.90;;;;;;4921650;29;20459;-79
2024/02/26 11:20:30;;;;;;;4.00;0.50;;;13.90;99.90;;;;;;4921272;29;20463;-80
2024/02/26 11:22:57;;;;;;;0.60;0.50;;;13.30;99.90;;;;;;4921221;29;20472;-81
2024/02/26 11:25:23;;;;;;;0.60;0.40;;;13.10;99.90;;;;;;4921810;29;20451;-81
2024/02/26 11:27:56;;;;;;;0.60;0.60;;;12.80;99.90;;;;;;4920640;29;20853;-80
2024/02/26 11:30:27;;;;;;;0.40;0.40;;;12.60;99.90;;;;;;4921033;29;20547;-81
2024/02/26 11:32:54;;;;;;;0.53;0.40;;;12.70;99.90;;;;;;4921476;29;20471;-80
2024/02/26 11:35:21;;;;;;;0.60;0.60;;;12.50;99.90;;;;;;4920915;29;20456;-80
2024/02/26 11:37:55;;;;;;;0.50;0.50;;;12.40;99.90;;;;;;4922781;29;20945;-80
2024/02/26 11:40:24;;;;;;;0.50;0.50;;;12.60;99.90;;;;;;4921313;29;20519;-80
2024/02/26 11:42:51;;;;;;;0.53;0.50;;;12.50;99.90;;;;;;4920525;29;20448;-80
2024/02/26 11:45:56;;;;;;;0.40;0.40;;;12.60;99.90;;;;;;4923201;29;20452;-80
2024/02/26 11:48:24;;;;;;;0.83;0.50;;;12.60;99.90;;;;;;4925564;29;20464;-80
2024/02/26 11:50:52;;;;;;;0.53;0.53;;;12.80;99.90;;;;;;4920383;29;20905;-81
2024/02/26 11:53:24;;;;;;;0.50;0.40;;;12.70;99.90;;;;;;4919223;29;20996;-81
2024/02/26 11:56:21;;;;;;;0.60;0.60;;;12.60;99.90;;;;;;4919459;29;20436;-81
2024/02/26 11:58:49;;;;;;;0.50;0.50;;;12.40;99.90;;;;;;4919458;29;20463;-81
2024/02/26 12:01:43;;;;;;;0.70;0.63;;;12.60;99.90;;;;;;4919852;29;20547;-80
2024/02/26 12:04:14;;;;;;;0.60;0.40;;;12.70;99.90;;;;;;4919609;29;20495;-81
2024/02/26 12:06:48;;;;;;;0.40;0.40;;;12.70;99.90;;;;;;4920242;29;20431;-81
2024/02/26 12:09:37;;;;;;;0.77;0.50;;;12.80;99.90;;;;;;4920873;29;20467;-81
2024/02/26 12:12:05;;;;;;;0.50;0.50;;;12.50;99.90;;;;;;4921939;29;20464;-81
2024/02/26 12:14:35;;;;;;;0.50;0.50;;;12.50;99.90;;;;;;4925795;29;20440;-80
2024/02/26 12:17:07;;;;;;;1.33;0.73;;;12.40;99.90;;;;;;4923521;29;20440;-81
2024/02/26 12:19:34;;;;;;;0.60;0.60;;;12.40;99.90;;;;;;4921767;29;20531;-81
2024/02/26 12:22:01;;;;;;;0.60;0.40;;;12.40;99.90;;;;;;4921694;29;20440;-81
2024/02/26 12:24:28;;;;;;;0.40;0.40;;;12.50;99.90;;;;;;4920957;29;20452;-81
2024/02/26 12:26:54;;;;;;;0.40;0.40;;;12.50;99.90;;;;;;4920774;29;20463;-80
2024/02/26 12:29:21;;;;;;;0.33;0.30;;;12.60;99.90;;;;;;4920951;29;20530;-80
2024/02/26 12:31:49;;;;;;;2.53;0.60;;;12.80;99.90;;;;;;4921631;29;20829;-80
2024/02/26 12:34:17;;;;;;;1.10;0.40;;;12.80;99.90;;;;;;4921390;29;20447;-80
2024/02/26 12:36:44;;;;;;;0.50;0.50;;;12.70;99.90;;;;;;4920758;29;20436;-80
2024/02/26 12:39:10;;;;;;;0.40;0.40;;;13.10;99.90;;;;;;4920076;29;20841;-80
2024/02/26 12:41:39;;;;;;;0.70;0.43;;;13.00;99.90;;;;;;4920853;29;20484;-81
2024/02/26 12:44:06;;;;;;;0.67;0.67;;;13.30;99.90;;;;;;4920498;29;20448;-81
2024/02/26 12:46:33;;;;;;;0.70;0.40;;;13.30;99.90;;;;;;4920497;29;20454;-80
2024/02/26 12:49:00;;;;;;;0.60;0.40;;;13.10;99.90;;;;;;4921236;29;20832;-80
2024/02/26 12:51:29;;;;;;;0.50;0.40;;;13.10;99.90;;;;;;4920931;29;20456;-81
2024/02/26 12:53:57;;;;;;;0.40;0.37;;;13.00;99.90;;;;;;4920580;29;20455;-80
2024/02/26 12:56:24;;;;;;;0.37;0.30;;;13.00;99.90;;;;;;4927785;29;20463;-80
2024/02/26 12:58:52;;;;;;;0.30;0.30;;;13.10;99.90;;;;;;4941808;29;20460;-79
2024/02/26 13:01:24;;;;;;;0.40;0.40;;;13.10;99.90;;;;;;4942426;29;20412;-79
2024/02/26 13:03:51;;;;;;;0.50;0.30;;;13.20;99.90;;;;;;4942007;29;20455;-81
2024/02/26 13:06:18;;;;;;;0.40;0.30;;;13.30;99.90;;;;;;4924601;29;20929;-80
2024/02/26 13:08:47;;;;;;;0.50;0.40;;;13.30;99.90;;;;;;4921584;29;20475;-80
2024/02/26 13:11:14;;;;;;;0.40;0.30;;;13.40;99.90;;;;;;4921887;29;20456;-80
2024/02/26 13:13:41;;;;;;;0.40;0.30;;;13.40;99.90;;;;;;4920766;29;20495;-80
2024/02/26 13:16:09;;;;;;;0.30;0.30;;;13.40;99.90;;;;;;4921115;29;20440;-82
2024/02/26 13:18:36;;;;;;;0.30;0.30;;;13.40;99.90;;;;;;4922600;29;20479;-81
2024/02/26 13:21:10;;;;;;;0.30;0.30;;;13.50;99.90;;;;;;4922756;29;20448;-81
2024/02/26 13:23:38;;;;;;;0.50;0.40;;;13.40;99.90;;;;;;4922633;29;20443;-80
2024/02/26 13:26:06;;;;;;;0.90;0.40;;;13.40;99.90;;;;;;4922110;29;20452;-81
2024/02/26 13:28:33;;;;;;;0.40;0.40;;;13.30;99.90;;;;;;4922462;29;20468;-81
2024/02/26 13:31:03;;;;;;;0.40;0.30;;;13.20;99.90;;;;;;4922145;29;20567;-81
2024/02/26 13:33:30;;;;;;;0.40;0.30;;;13.10;99.90;;;;;;4923452;29;20499;-81
2024/02/26 13:35:58;;;;;;;0.40;0.30;;;13.20;99.90;;;;;;4923120;29;20452;-81
2024/02/26 13:38:24;;;;;;;0.30;0.30;;;13.20;99.90;;;;;;4923743;29;20483;-81
2024/02/26 13:40:52;;;;;;;0.40;0.30;;;13.20;99.90;;;;;;4922652;29;20463;-82
2024/02/26 13:43:20;;;;;;;0.30;0.20;;;13.10;99.90;;;;;;4925504;29;20448;-81
2024/02/26 13:45:47;;;;;;;0.40;0.40;;;13.10;99.90;;;;;;4922885;29;20444;-81
2024/02/26 13:48:15;;;;;;;0.40;0.40;;;13.20;99.90;;;;;;4922273;29;20455;-81
2024/02/26 13:50:45;;;;;;;0.40;0.40;;;13.20;99.90;;;;;;4922657;29;20444;-81
2024/02/26 13:53:12;;;;;;;0.40;0.30;;;13.10;99.90;;;;;;4921604;29;20507;-81
2024/02/26 13:55:39;;;;;;;0.40;0.33;;;13.10;99.90;;;;;;4921977;29;20460;-82
2024/02/26 13:58:07;;;;;;;0.40;0.40;;;13.00;99.90;;;;;;4922219;29;20538;-81
2024/02/26 14:00:35;;;;;;;0.77;0.50;;;13.10;99.90;;;;;;4925408;29;20454;-82
2024/02/26 14:03:02;;;;;;;0.40;0.30;;;13.10;99.90;;;;;;4918838;29;20452;-82
2024/02/26 14:05:29;;;;;;;0.40;0.40;;;13.00;99.90;;;;;;4918508;29;20463;-82
2024/02/26 14:07:56;;;;;;;0.70;0.30;;;13.00;99.90;;;;;;4917425;29;20538;-82
2024/02/26 14:10:23;;;;;;;0.30;0.30;;;13.00;99.90;;;;;;4918185;29;20482;-82
2024/02/26 14:12:50;;;;;;;0.70;0.40;;;12.90;99.90;;;;;;4917617;29;21044;-82
2024/02/26 14:15:17;;;;;;;0.37;0.33;;;12.80;99.90;;;;;;4918083;29;20462;-82
2024/02/26 14:17:45;;;;;;;0.73;0.40;;;12.70;99.90;;;;;;4919456;29;20447;-82
2024/02/26 14:20:12;;;;;;;0.40;0.30;;;12.60;99.90;;;;;;4919864;29;20479;-82
2024/02/26 14:22:39;;;;;;;0.87;0.40;;;12.60;99.90;;;;;;4919266;29;20455;-82
2024/02/26 14:25:09;;;;;;;0.40;0.20;;;12.60;99.90;;;;;;4918359;29;20440;-82
2024/02/26 14:27:35;;;;;;;0.40;0.40;;;12.60;99.90;;;;;;4918904;29;20901;-82
2024/02/26 14:30:02;;;;;;;0.40;0.30;;;12.60;99.90;;;;;;4917682;29;20997;-82
2024/02/26 14:32:29;;;;;;;0.47;0.40;;;12.50;99.90;;;;;;4917499;29;20586;-82
2024/02/26 14:34:58;;;;;;;0.60;0.30;;;12.50;99.90;;;;;;4917647;29;20440;-82
2024/02/26 14:37:25;;;;;;;0.40;0.30;;;12.60;99.90;;;;;;4917692;29;20456;-82
2024/02/26 14:39:52;;;;;;;0.63;0.43;;;12.50;99.90;;;;;;4918535;29;20468;-83
2024/02/26 14:42:19;;;;;;;0.40;0.30;;;12.40;99.90;;;;;;4918133;29;20527;-82
2024/02/26 14:44:47;;;;;;;0.40;0.30;;;12.30;99.90;;;;;;4919075;29;20475;-82
2024/02/26 14:47:14;;;;;;;0.30;0.30;;;12.30;99.90;;;;;;4918452;29;20504;-83
2024/02/26 14:49:41;;;;;;;0.40;0.30;;;12.30;99.90;;;;;;4918060;29;20981;-82
2024/02/26 14:52:09;;;;;;;0.40;0.30;;;12.30;99.90;;;;;;4918327;29;20452;-82
2024/02/26 14:54:38;;;;;;;0.50;0.30;;;12.30;99.90;;;;;;4919058;29;20997;-82
2024/02/26 14:57:06;;;;;;;0.30;0.20;;;12.40;99.90;;;;;;4918792;29;20555;-82
2024/02/26 14:59:33;;;;;;;0.40;0.30;;;12.30;99.90;;;;;;4919467;29;20563;-83
2024/02/26 15:02:00;;;;;;;0.60;0.30;;;12.30;99.90;;;;;;4922592;29;20480;-82
2024/02/26 15:04:27;;;;;;;0.70;0.40;;;12.20;99.90;;;;;;4923252;29;21012;-82
2024/02/26 15:06:54;;;;;;;0.60;0.60;;;12.30;99.90;;;;;;4922776;29;20459;-82
2024/02/26 15:09:22;;;;;;;1.23;0.40;;;12.30;99.90;;;;;;4921752;29;20491;-81
2024/02/26 15:11:49;;;;;;;0.40;0.40;;;12.30;99.90;;;;;;4921819;29;20452;-83
2024/02/26 15:14:15;;;;;;;0.50;0.40;;;12.30;99.90;;;;;;4922560;29;21071;-82
2024/02/26 15:16:42;;;;;;;0.77;0.47;;;12.30;99.90;;;;;;4922508;29;20452;-83
2024/02/26 15:19:09;;;;;;;0.30;0.30;;;12.40;99.90;;;;;;4922341;29;20540;-82
2024/02/26 15:21:42;;;;;;;0.67;0.40;;;12.40;99.90;;;;;;4923805;29;20456;-82
2024/02/26 15:24:10;;;;;;;3.87;1.80;;;12.40;99.90;;;;;;4923288;29;20436;-83
2024/02/26 15:26:40;;;;;;;0.70;0.60;;;12.40;99.90;;;;;;4923030;29;20953;-82
2024/02/26 15:29:08;;;;;;;3.93;3.03;;;12.40;99.90;;;;;;4922249;29;20480;-82
2024/02/26 15:31:35;;;;;;;0.70;0.70;;;12.30;99.90;;;;;;4922405;29;20941;-82
2024/02/26 15:34:02;;;;;;;11.13;2.67;;;12.40;99.90;;;;;;4922273;29;20487;-83
2024/02/26 15:36:29;;;;;;;1.33;0.63;;;12.30;99.90;;;;;;4922271;29;20968;-82
2024/02/26 15:38:57;;;;;;;0.60;0.60;;;12.20;99.90;;;;;;4922150;29;20479;-83
2024/02/26 15:41:24;;;;;;;0.90;0.80;;;12.20;99.90;;;;;;4922442;29;21028;-81
2024/02/26 15:43:52;;;;;;;1.07;0.80;;;12.20;99.90;;;;;;4921730;29;20968;-82
2024/02/26 15:46:19;;;;;;;1.70;0.80;;;12.30;99.90;;;;;;4922355;29;20455;-82
2024/02/26 15:48:45;;;;;;;0.50;0.50;;;12.10;99.90;;;;;;4921812;29;21081;-83
2024/02/26 15:51:19;;;;;;;0.67;0.50;;;12.10;99.90;;;;;;4921023;29;20456;-82
2024/02/26 15:53:47;;;;;;;1.57;1.47;;;12.10;99.90;;;;;;4922203;29;20483;-83
2024/02/26 15:56:14;;;;;;;1.37;1.27;;;12.10;99.90;;;;;;4921468;29;20500;-82
2024/02/26 15:58:41;;;;;;;2.33;1.00;;;12.10;99.90;;;;;;4921621;29;20482;-82
2024/02/26 16:01:09;;;;;;;0.63;0.63;;;12.10;99.90;;;;;;4921760;29;20476;-81
2024/02/26 16:03:38;;;;;;;2.93;2.03;;;12.00;99.90;;;;;;4925417;29;20459;-83
2024/02/26 16:06:05;;;;;;;4.43;2.80;;;11.90;99.90;;;;;;4921360;29;20436;-83
2024/02/26 16:08:33;;;;;;;11.70;5.60;;;11.90;99.90;;;;;;4921046;29;20839;-82
2024/02/26 16:11:00;;;;;;;8.00;3.87;;;11.90;99.90;;;;;;4920476;29;20499;-82
2024/02/26 16:13:26;;;;;;;2.30;1.63;;;11.90;99.90;;;;;;4925329;29;20480;-83
2024/02/26 16:16:01;;;;;;;2.40;1.60;;;11.80;99.90;;;;;;4919767;29;20818;-83
2024/02/26 16:18:29;;;;;;;2.37;2.03;;;11.70;99.90;;;;;;4919669;29;20475;-83
2024/02/26 16:20:56;;;;;;;0.70;0.50;;;11.70;99.90;;;;;;4920098;29;20475;-83
2024/02/26 16:23:23;;;;;;;0.93;0.40;;;11.70;99.90;;;;;;4920744;29;20481;-83
2024/02/26 16:25:50;;;;;;;4.63;0.90;;;11.60;99.90;;;;;;4920736;29;20476;-83
2024/02/26 16:28:16;;;;;;;1.20;0.93;;;11.60;99.90;;;;;;4921476;29;20466;-82
2024/02/26 16:30:43;;;;;;;7.53;3.30;;;11.50;99.90;;;;;;4920232;29;20494;-82
2024/02/26 16:33:11;;;;;;;0.60;0.60;;;11.40;99.90;;;;;;4922336;29;20502;-82
2024/02/26 16:35:39;;;;;;;0.77;0.77;;;11.40;99.90;;;;;;4921452;29;20448;-83
2024/02/26 16:38:06;;;;;;;2.83;2.10;;;11.40;99.90;;;;;;4921676;29;20853;-82
2024/02/26 16:40:32;;;;;;;1.03;1.03;;;11.40;99.90;;;;;;4920644;29;20451;-82
2024/02/26 16:42:59;;;;;;;0.80;0.60;;;11.40;99.90;;;;;;4920508;29;20491;-84
2024/02/26 16:45:27;;;;;;;8.80;5.10;;;11.40;99.90;;;;;;4921237;29;20965;-83
2024/02/26 16:47:54;;;;;;;3.77;3.33;;;11.40;99.90;;;;;;4920634;29;20547;-86
2024/02/26 16:50:22;;;;;;;4.53;3.33;;;11.40;99.90;;;;;;4921730;29;20472;-82
2024/02/26 16:52:50;;;;;;;0.73;0.57;;;11.30;99.90;;;;;;4920788;29;20488;-83
2024/02/26 16:55:17;;;;;;;1.27;0.80;;;11.20;99.90;;;;;;4920220;29;20455;-83
2024/02/26 16:57:44;;;;;;;2.50;0.83;;;11.20;99.90;;;;;;4920728;29;20456;-83
2024/02/26 17:00:12;;;;;;;2.10;0.77;;;11.20;99.90;;;;;;4920737;29;20567;-82
2024/02/26 17:02:40;;;;;;;4.03;2.00;;;11.20;99.90;;;;;;4921090;29;20507;-82
2024/02/26 17:05:09;;;;;;;2.53;2.10;;;11.20;99.90;;;;;;4920765;29;20466;-82
2024/02/26 17:07:36;;;;;;;1.23;1.07;;;11.20;99.90;;;;;;4920691;29;20456;-82
2024/02/26 17:10:05;;;;;;;1.93;1.83;;;11.10;99.90;;;;;;4920446;29;20985;-82
2024/02/26 17:12:32;;;;;;;0.73;0.70;;;11.10;99.90;;;;;;4920791;29;20435;-82
2024/02/26 17:14:58;;;;;;;1.17;0.73;;;11.10;99.90;;;;;;4920314;29;20492;-82
2024/02/26 17:17:25;;;;;;;0.87;0.80;;;11.00;99.90;;;;;;4921084;29;20492;-82
2024/02/26 17:19:52;;;;;;;1.13;0.70;;;11.00;99.90;;;;;;4920473;29;20989;-82
2024/02/26 17:22:18;;;;;;;0.40;0.40;;;10.90;99.90;;;;;;4920673;29;20451;-81
2024/02/26 17:24:46;;;;;;;2.57;1.23;;;11.10;99.90;;;;;;4921255;29;20962;-81
2024/02/26 17:27:14;;;;;;;0.70;0.57;;;11.00;99.90;;;;;;4921708;29;20478;-82
2024/02/26 17:29:41;;;;;;;0.97;0.60;;;11.00;99.90;;;;;;4922294;29;20484;-80
2024/02/26 17:32:08;;;;;;;1.17;1.03;;;10.90;99.90;;;;;;4923081;29;20452;-81
2024/02/26 17:34:35;;;;;;;0.77;0.73;;;10.90;99.90;;;;;;4922626;29;20483;-82
2024/02/26 17:37:01;;;;;;;0.60;0.60;;;10.90;99.90;;;;;;4922393;29;20443;-80
2024/02/26 17:39:28;;;;;;;1.43;0.70;;;10.80;99.90;;;;;;4919521;29;20478;-81
2024/02/26 17:41:55;;;;;;;2.73;0.70;;;10.80;99.90;;;;;;4920549;29;20445;-81
2024/02/26 17:44:25;;;;;;;1.10;0.60;;;10.80;99.90;;;;;;4920456;29;20436;-81
2024/02/26 17:46:52;;;;;;;1.00;0.57;;;10.80;99.90;;;;;;4920382;29;20443;-82
2024/02/26 17:49:23;;;;;;;1.00;0.70;;;10.60;99.90;;;;;;4919774;29;20891;-82
2024/02/26 17:51:50;;;;;;;1.70;1.07;;;10.60;99.90;;;;;;4920793;29;20870;-81
2024/02/26 17:54:17;;;;;;;0.70;0.70;;;10.60;99.90;;;;;;4919726;29;20487;-82
2024/02/26 17:56:43;;;;;;;2.70;0.90;;;10.60;99.90;;;;;;4920039;29;20456;-82
2024/02/26 17:59:11;;;;;;;2.10;1.20;;;10.60;99.90;;;;;;4919861;29;20814;-81
2024/02/26 18:01:40;;;;;;;1.23;0.90;;;10.60;99.90;;;;;;4919994;29;20448;-82
2024/02/26 18:04:06;;;;;;;0.67;0.67;;;10.60;99.90;;;;;;4920279;29;20487;-81
2024/02/26 18:06:33;;;;;;;1.80;1.13;;;10.60;99.90;;;;;;4920065;29;20962;-81
2024/02/26 18:09:00;;;;;;;0.80;0.80;;;10.50;99.90;;;;;;4920218;29;20475;-82
2024/02/26 18:11:27;;;;;;;1.67;0.73;;;10.70;99.90;;;;;;4920413;29;20456;-82
2024/02/26 18:13:53;;;;;;;1.10;0.70;;;10.40;99.90;;;;;;4919504;29;20853;-82
2024/02/26 18:16:20;;;;;;;1.27;0.60;;;10.40;99.90;;;;;;4919994;29;20460;-81
2024/02/26 18:18:48;;;;;;;1.50;1.10;;;10.40;99.90;;;;;;4919584;29;20460;-81
2024/02/26 18:21:16;;;;;;;1.93;1.03;;;10.30;99.90;;;;;;4920467;29;20451;-82
2024/02/26 18:23:43;;;;;;;3.73;1.37;;;10.30;99.90;;;;;;4920664;29;20455;-81